Terminal Aerodrome Forecast
Issued by NWS

Home | Current Version | Previous Version | Graphics & Text | Print | Product List | Glossary On
Versions: 1 2 3 4 5 6 7 8 9 10 11 12 13 14 15 16 17 18 19
479
FTUS43 KICT 230821 AAA
TAFHUT
TAF AMD
KHUT 230821Z 2308/2406 33004KT 3SM BR BKN003
     FM231600 02006KT 4SM BR BKN010
     FM231700 03006KT P6SM BKN020
     FM231800 04007KT P6SM SCT035
     FM240400 08007KT P6SM BKN008=

USA.gov is the U.S. government's official web portal to all federal, state and local government web resources and services.